Airfield :
LOGIN :

Register | Disclaimer

   EN    FR    IT 

 










Legend :    VFR   Marginal VFR   IFR   Intensive IFR   Very Intensive IFR
Visi :
Ceiling :
>= 8 km
>= 3000ft
5 to 8 km
1000 to 3000 ft
1500m to 5 km
500 to 1000 ft
800 to 1500m
200 to 500 ft
< 800m
< 200 ft
Symbols :   Thunderstorms  Fog  Heavy snow  Heavy precipitations  Wind > 20 kt
SIGMETs :     Misc.  Thunderstorms  Icing  Turbulence  Mountain Waves  Volcanic Ashes







- Airport Elevation : 604 ft
- IATA code : LCJ


EPLL - Lodz

CURRENT METAR :
  • 110030Z 24007KT 9999 BKN012 02/00 Q1007

EXPIRED METARs :
  • 110000Z 24010KT 9999 BKN012 OVC015 02/00 Q1007
  • 102330Z 24011KT 9999 BKN013 BKN020 02/M00 Q1007
  • 102300Z 25012KT 9999 SCT013 BKN019 02/M00 Q1007
  • 102230Z 25011KT 9999 BKN013 02/M00 Q1007
  • 102200Z 25013KT 9999 BKN013 02/M00 Q1007

TAF TAF EPLL
Valid from the 11 at 00:00 until the 12 at 00:00 UTC


102330Z 1100/1124 26012KT 9999 BKN017
TEMPO 1100/1106 3000 SHRASN BKN007 BKN010CB
BECMG 1106/1109 20010KT 4000 -RASN BR BKN010
TEMPO 1108/1118 2000 SHSNRA BKN008CB
No reported NOTAMs for that airfield.



MET'MAP, your aeronautical weather chart ! - Copyright ORBIFLY December 2007 - Disclaimer

ORBIFLY MET'MAP TEAM :

Programming & Development : Alexandra Zaïnal
Concept & Development : Baudouin d'Aumeries
Co-Development & Prog : Marc-Olivier Méhu
Technical & hardware support : Manuel Goepfert

Contact : metmap@orbifly.com




SOURCES & CREDITS :

   NOAA